Time;durP1;ratioP1;P1;durP2;ratioP2;P2;SDS_P1;SDS_P2;PMS_P1;PMS_P2;Temp;Humidity;BMP_temperature;BMP_pressure;BME280_temperature;BME280_humidity;BME280_pressure;Samples;Min_cycle;Max_cycle;Signal;HPM_P1;HPM_P2
2021/07/16 00:01:06;;;;;;;18.88;7.80;;;16.80;98.60;;;;;;4894921;29;20051;-79
2021/07/16 00:03:32;;;;;;;27.23;9.32;;;16.70;99.10;;;;;;4875415;29;20104;-82
2021/07/16 00:05:58;;;;;;;17.02;7.90;;;16.80;98.80;;;;;;4893327;29;20067;-82
2021/07/16 00:08:24;;;;;;;22.92;8.95;;;16.70;99.20;;;;;;4878729;29;20182;-82
2021/07/16 00:10:50;;;;;;;23.80;8.27;;;16.60;99.40;;;;;;4900770;29;20051;-80
2021/07/16 00:13:16;;;;;;;21.00;7.90;;;16.70;98.70;;;;;;4911734;29;20044;-82
2021/07/16 00:15:43;;;;;;;17.55;8.13;;;16.70;98.80;;;;;;4860920;29;20048;-83
2021/07/16 00:18:12;;;;;;;21.60;7.88;;;16.60;99.00;;;;;;4874756;29;20052;-82
2021/07/16 00:20:41;;;;;;;24.55;7.97;;;16.70;98.80;;;;;;4907804;29;20047;-82
2021/07/16 00:23:06;;;;;;;20.00;8.93;;;16.60;98.80;;;;;;4862141;29;20078;-81
2021/07/16 00:25:33;;;;;;;18.92;9.05;;;16.60;99.20;;;;;;4879335;29;20130;-81
2021/07/16 00:27:59;;;;;;;21.48;8.65;;;16.50;99.40;;;;;;4858685;29;20056;-81
2021/07/16 00:30:24;;;;;;;23.48;8.73;;;16.50;99.60;;;;;;4873803;29;20055;-80
2021/07/16 00:32:50;;;;;;;25.58;7.80;;;16.50;99.40;;;;;;4892815;29;20488;-82
2021/07/16 00:35:16;;;;;;;20.00;8.77;;;16.40;99.60;;;;;;4875923;29;20040;-81
2021/07/16 00:37:42;;;;;;;23.52;8.50;;;16.50;99.60;;;;;;4907335;29;20040;-81
2021/07/16 00:40:11;;;;;;;22.77;9.30;;;16.40;99.40;;;;;;4892905;29;20051;-80
2021/07/16 00:42:38;;;;;;;21.52;9.00;;;16.40;99.50;;;;;;4909826;29;20597;-80
2021/07/16 00:45:09;;;;;;;16.30;8.38;;;16.50;99.30;;;;;;4874533;29;20380;-79
2021/07/16 00:47:37;;;;;;;22.20;8.30;;;16.50;98.90;;;;;;4875051;29;20040;-79
2021/07/16 00:50:10;;;;;;;19.15;8.15;;;16.40;99.10;;;;;;4870080;29;20452;-80
2021/07/16 00:52:43;;;;;;;21.42;8.50;;;16.40;99.60;;;;;;4906717;29;20040;-80
2021/07/16 00:55:11;;;;;;;22.08;8.60;;;16.40;99.60;;;;;;4875075;29;20051;-81
2021/07/16 00:57:38;;;;;;;18.80;7.97;;;16.40;99.50;;;;;;4889722;29;20044;-80
2021/07/16 01:00:07;;;;;;;20.58;7.88;;;16.40;99.50;;;;;;4904048;29;20119;-80
2021/07/16 01:02:33;;;;;;;17.85;7.40;;;16.30;99.60;;;;;;4906152;29;20565;-80
2021/07/16 01:05:00;;;;;;;25.02;9.73;;;16.30;99.60;;;;;;4889106;29;20040;-80
2021/07/16 01:07:26;;;;;;;18.90;7.47;;;16.30;99.30;;;;;;4873935;29;20163;-82
2021/07/16 01:09:52;;;;;;;21.10;8.75;;;16.30;99.20;;;;;;4889059;29;20047;-81
2021/07/16 01:12:21;;;;;;;25.42;9.10;;;16.30;99.40;;;;;;4891839;29;20041;-80
2021/07/16 01:14:48;;;;;;;19.85;7.45;;;16.30;99.70;;;;;;4907968;29;20067;-81
2021/07/16 01:17:14;;;;;;;17.73;6.93;;;16.30;99.30;;;;;;4887228;29;20040;-81
2021/07/16 01:19:47;;;;;;;16.85;8.27;;;16.20;99.50;;;;;;4889758;29;20040;-82
2021/07/16 01:22:17;;;;;;;21.08;7.70;;;16.20;99.50;;;;;;4889500;29;20048;-80
2021/07/16 01:24:44;;;;;;;23.83;8.05;;;16.20;99.40;;;;;;4905677;29;20060;-79
2021/07/16 01:27:11;;;;;;;19.73;7.80;;;16.20;99.20;;;;;;4883644;29;20134;-82
2021/07/16 01:29:39;;;;;;;24.90;7.82;;;16.20;99.50;;;;;;4871871;29;20040;-82
2021/07/16 01:32:05;;;;;;;20.42;7.72;;;16.20;99.70;;;;;;4885193;29;20043;-79
2021/07/16 01:34:32;;;;;;;19.90;6.97;;;16.10;99.90;;;;;;4855996;29;20040;-80
2021/07/16 01:36:57;;;;;;;22.77;8.65;;;16.10;99.90;;;;;;4887262;29;20048;-79
2021/07/16 01:39:23;;;;;;;22.02;7.53;;;16.20;99.90;;;;;;4882456;29;20400;-79
2021/07/16 01:41:49;;;;;;;24.30;7.55;;;16.10;99.90;;;;;;4905591;29;20149;-79
2021/07/16 01:44:15;;;;;;;22.42;7.80;;;16.10;99.90;;;;;;4870497;29;20170;-80
2021/07/16 01:46:42;;;;;;;24.80;7.35;;;16.10;99.90;;;;;;4867946;29;20978;-79
2021/07/16 01:49:09;;;;;;;20.42;7.03;;;16.10;99.90;;;;;;4879731;29;20048;-80
2021/07/16 01:51:35;;;;;;;20.67;6.53;;;16.10;99.90;;;;;;4866897;29;20126;-81
2021/07/16 01:54:01;;;;;;;15.73;6.82;;;16.10;99.90;;;;;;4871258;29;20127;-80
2021/07/16 01:56:27;;;;;;;19.40;7.15;;;16.10;99.90;;;;;;4869428;29;20618;-81
2021/07/16 01:58:53;;;;;;;17.25;6.95;;;16.10;99.90;;;;;;4885161;29;20048;-80
2021/07/16 02:01:24;;;;;;;25.08;7.07;;;16.10;99.90;;;;;;4868199;29;20048;-80
2021/07/16 02:03:50;;;;;;;19.15;7.05;;;16.10;99.90;;;;;;4841732;29;20559;-80
2021/07/16 02:06:17;;;;;;;27.85;8.05;;;16.10;99.90;;;;;;4870089;29;20040;-80
2021/07/16 02:08:46;;;;;;;19.98;7.10;;;16.00;99.90;;;;;;4870153;29;20138;-80
2021/07/16 02:11:12;;;;;;;24.95;7.47;;;16.00;99.90;;;;;;4854928;29;20056;-80
2021/07/16 02:13:39;;;;;;;17.95;7.10;;;16.00;99.90;;;;;;4886699;29;20056;-80
2021/07/16 02:16:05;;;;;;;20.38;6.97;;;16.00;99.90;;;;;;4872431;29;20056;-80
2021/07/16 02:18:33;;;;;;;24.83;7.00;;;16.00;99.90;;;;;;4885624;29;20040;-79
2021/07/16 02:20:59;;;;;;;24.52;6.97;;;16.00;99.90;;;;;;4876789;29;20048;-80
2021/07/16 02:23:28;;;;;;;18.23;6.78;;;16.00;99.90;;;;;;4856235;29;20052;-78
2021/07/16 02:25:55;;;;;;;19.52;6.97;;;16.00;99.90;;;;;;4892574;29;20051;-77
2021/07/16 02:28:30;;;;;;;20.88;6.68;;;16.00;99.90;;;;;;4905922;29;20047;-78
2021/07/16 02:30:57;;;;;;;19.92;8.20;;;16.00;99.90;;;;;;4907557;29;20064;-77
2021/07/16 02:33:23;;;;;;;23.90;7.53;;;15.90;99.90;;;;;;4890823;29;20075;-77
2021/07/16 02:35:50;;;;;;;23.65;7.10;;;15.90;99.90;;;;;;4906641;29;20545;-80
2021/07/16 02:38:16;;;;;;;25.63;7.35;;;15.90;99.90;;;;;;4891593;29;20123;-81
2021/07/16 02:40:43;;;;;;;20.08;6.80;;;15.90;99.90;;;;;;4891777;29;20044;-80
2021/07/16 02:43:09;;;;;;;20.58;7.45;;;15.90;99.90;;;;;;4902825;29;20075;-81
2021/07/16 02:45:36;;;;;;;21.92;7.35;;;15.90;99.90;;;;;;4859118;29;20066;-76
2021/07/16 02:48:02;;;;;;;21.02;6.82;;;15.90;99.90;;;;;;4891279;29;20411;-78
2021/07/16 02:50:31;;;;;;;21.50;6.35;;;15.90;99.90;;;;;;4872570;29;20049;-78
2021/07/16 02:52:57;;;;;;;17.42;6.43;;;15.90;99.90;;;;;;4904554;29;20049;-77
2021/07/16 02:55:24;;;;;;;19.08;7.93;;;15.90;99.90;;;;;;4875068;29;20056;-80
2021/07/16 02:57:50;;;;;;;26.55;7.45;;;15.80;99.90;;;;;;4906561;29;20040;-81
2021/07/16 03:00:19;;;;;;;23.83;7.25;;;15.80;99.90;;;;;;4907865;29;20074;-80
2021/07/16 03:02:47;;;;;;;19.48;6.43;;;15.80;99.90;;;;;;4886973;29;20044;-82
2021/07/16 03:05:16;;;;;;;19.70;7.15;;;15.80;99.90;;;;;;4905816;29;20036;-80
2021/07/16 03:07:43;;;;;;;25.50;7.17;;;15.80;99.90;;;;;;4888360;29;20075;-82
2021/07/16 03:10:18;;;;;;;25.08;6.95;;;15.80;99.90;;;;;;4892238;29;20132;-80
2021/07/16 03:12:44;;;;;;;17.83;6.40;;;15.80;99.90;;;;;;4892140;29;20444;-80
2021/07/16 03:15:14;;;;;;;20.13;7.53;;;15.80;99.90;;;;;;4889917;29;20495;-80
2021/07/16 03:17:40;;;;;;;17.45;6.40;;;15.80;99.90;;;;;;4908406;29;20055;-79
2021/07/16 03:20:07;;;;;;;21.33;6.22;;;15.70;99.90;;;;;;4885785;29;20205;-82
2021/07/16 03:22:33;;;;;;;20.00;6.10;;;15.70;99.90;;;;;;4874253;29;20058;-80
2021/07/16 03:24:59;;;;;;;19.35;6.85;;;15.70;99.90;;;;;;4860262;29;20051;-80
2021/07/16 03:27:25;;;;;;;23.42;7.18;;;15.70;99.90;;;;;;4874502;29;20122;-79
2021/07/16 03:29:51;;;;;;;22.63;7.00;;;15.70;99.90;;;;;;4874615;29;20044;-80
2021/07/16 03:32:17;;;;;;;18.77;7.13;;;15.70;99.90;;;;;;4870697;29;20067;-80
2021/07/16 03:34:43;;;;;;;25.88;6.60;;;15.70;99.90;;;;;;4875136;29;20412;-80
2021/07/16 03:37:09;;;;;;;19.75;6.20;;;15.70;99.90;;;;;;4857613;29;20084;-79
2021/07/16 03:39:35;;;;;;;21.73;7.40;;;15.70;99.90;;;;;;4857694;29;20082;-78
2021/07/16 03:42:01;;;;;;;21.85;7.10;;;15.70;99.90;;;;;;4890539;29;20040;-79
2021/07/16 03:44:29;;;;;;;20.63;6.85;;;15.70;99.90;;;;;;4873765;29;20040;-79
2021/07/16 03:46:58;;;;;;;22.55;7.20;;;15.70;99.90;;;;;;4886261;29;20059;-81
2021/07/16 03:49:26;;;;;;;18.95;6.75;;;15.70;99.90;;;;;;4887321;29;20036;-80
2021/07/16 03:51:53;;;;;;;19.77;6.65;;;15.70;99.90;;;;;;4885383;29;20095;-81
2021/07/16 03:54:23;;;;;;;22.50;6.90;;;15.70;99.90;;;;;;4887483;29;20388;-80
2021/07/16 03:56:49;;;;;;;19.38;5.78;;;15.70;99.90;;;;;;4885238;29;20712;-80
2021/07/16 03:59:15;;;;;;;17.80;5.80;;;15.80;99.90;;;;;;4904612;29;20091;-81
2021/07/16 04:01:41;;;;;;;21.63;7.30;;;15.70;99.90;;;;;;4885032;29;20046;-81
2021/07/16 04:04:12;;;;;;;20.17;7.03;;;15.80;99.90;;;;;;4857838;29;20086;-80
2021/07/16 04:06:42;;;;;;;19.15;6.60;;;15.80;99.90;;;;;;4885528;29;20115;-80
2021/07/16 04:09:30;;;;;;;21.27;6.03;;;15.80;99.90;;;;;;4873131;29;20046;-80
2021/07/16 04:12:16;;;;;;;23.73;7.47;;;15.70;99.90;;;;;;4875216;29;20051;-80
2021/07/16 04:14:47;;;;;;;25.67;6.82;;;15.80;99.90;;;;;;4887508;29;20104;-81
2021/07/16 04:17:15;;;;;;;22.60;7.53;;;15.80;99.90;;;;;;4888509;29;20601;-80
2021/07/16 04:19:43;;;;;;;24.67;7.15;;;15.70;99.90;;;;;;4903473;29;20062;-81
2021/07/16 04:22:14;;;;;;;21.00;6.60;;;15.80;99.90;;;;;;4904296;29;20725;-80
2021/07/16 04:24:44;;;;;;;25.15;7.30;;;15.80;99.90;;;;;;4886512;29;20056;-80
2021/07/16 04:27:12;;;;;;;27.63;7.07;;;15.80;99.90;;;;;;4890451;29;20063;-80
2021/07/16 04:29:43;;;;;;;22.92;7.20;;;15.80;99.90;;;;;;4887701;29;20058;-80
2021/07/16 04:32:10;;;;;;;23.77;6.47;;;15.80;99.90;;;;;;4887151;29;20036;-81
2021/07/16 04:34:37;;;;;;;26.23;6.55;;;15.80;99.90;;;;;;4889906;29;20037;-82
2021/07/16 04:37:05;;;;;;;23.40;6.18;;;15.80;99.90;;;;;;4868112;29;20080;-82
2021/07/16 04:39:32;;;;;;;19.30;6.38;;;15.70;99.90;;;;;;4888929;29;20064;-81
2021/07/16 04:41:58;;;;;;;22.83;6.30;;;15.80;99.90;;;;;;4886385;29;20841;-81
2021/07/16 04:44:25;;;;;;;23.60;7.20;;;15.90;99.90;;;;;;4903443;29;20048;-80
2021/07/16 04:46:56;;;;;;;23.17;6.45;;;15.80;99.90;;;;;;4904194;29;20104;-81
2021/07/16 04:49:31;;;;;;;25.75;7.07;;;15.90;99.90;;;;;;4874778;29;20047;-81
2021/07/16 04:51:59;;;;;;;26.25;6.93;;;15.80;99.90;;;;;;4902870;29;20040;-78
2021/07/16 04:54:25;;;;;;;30.42;7.95;;;15.90;99.90;;;;;;4885553;29;20059;-78
2021/07/16 04:56:51;;;;;;;18.08;6.15;;;15.90;99.90;;;;;;4885790;29;20047;-78
2021/07/16 04:59:19;;;;;;;24.65;6.25;;;15.90;99.90;;;;;;4886813;29;20037;-77
2021/07/16 05:01:45;;;;;;;20.38;6.20;;;15.90;99.90;;;;;;4882859;29;20143;-78
2021/07/16 05:04:11;;;;;;;25.55;5.70;;;15.90;99.90;;;;;;4886325;29;20140;-78
2021/07/16 05:06:37;;;;;;;23.67;5.68;;;15.90;99.90;;;;;;4869392;29;20048;-81
2021/07/16 05:09:04;;;;;;;28.20;6.50;;;15.90;99.90;;;;;;4871412;29;20043;-78
2021/07/16 05:11:31;;;;;;;24.48;6.47;;;15.90;99.90;;;;;;4855458;29;20392;-79
2021/07/16 05:14:01;;;;;;;28.02;6.35;;;16.00;99.90;;;;;;4870525;29;20067;-79
2021/07/16 05:16:28;;;;;;;27.13;7.32;;;16.00;99.90;;;;;;4886427;29;20048;-78
2021/07/16 05:18:53;;;;;;;23.70;6.35;;;16.00;99.90;;;;;;4889682;29;20044;-79
2021/07/16 05:21:19;;;;;;;26.98;6.80;;;16.00;99.90;;;;;;4900661;29;20098;-80
2021/07/16 05:23:46;;;;;;;31.38;6.93;;;16.00;99.90;;;;;;4890176;29;20052;-77
2021/07/16 05:26:12;;;;;;;29.08;7.03;;;16.00;99.90;;;;;;4902663;29;20063;-78
2021/07/16 05:28:42;;;;;;;25.67;6.07;;;16.00;99.90;;;;;;4890772;29;20036;-79
2021/07/16 05:31:08;;;;;;;23.92;6.53;;;16.00;99.90;;;;;;4884623;29;20048;-78
2021/07/16 05:33:34;;;;;;;23.45;6.68;;;16.00;99.90;;;;;;4870410;29;20126;-77
2021/07/16 05:36:00;;;;;;;23.65;6.47;;;16.00;99.90;;;;;;4885581;29;20094;-79
2021/07/16 05:38:26;;;;;;;24.67;6.85;;;16.00;99.90;;;;;;4889830;29;20047;-77
2021/07/16 05:40:53;;;;;;;29.52;6.88;;;16.10;99.90;;;;;;4868692;29;20044;-76
2021/07/16 05:43:21;;;;;;;27.92;7.43;;;16.10;99.90;;;;;;4870812;29;20555;-78
2021/07/16 05:45:47;;;;;;;29.08;6.75;;;16.20;99.90;;;;;;4903252;29;20040;-79
2021/07/16 05:48:13;;;;;;;23.60;5.90;;;16.10;99.90;;;;;;4903853;29;20099;-78
2021/07/16 05:50:45;;;;;;;28.42;6.13;;;16.20;99.90;;;;;;4853471;29;20576;-80
2021/07/16 05:53:11;;;;;;;29.38;7.80;;;16.20;99.90;;;;;;4886033;29;20127;-79
2021/07/16 05:55:37;;;;;;;37.40;7.68;;;16.20;99.90;;;;;;4853939;29;20131;-78
2021/07/16 05:58:04;;;;;;;23.48;6.55;;;16.30;99.90;;;;;;4882268;29;20050;-80
2021/07/16 06:00:30;;;;;;;22.10;6.78;;;16.30;99.90;;;;;;4883928;29;20610;-79
2021/07/16 06:02:56;;;;;;;25.50;7.10;;;16.40;99.90;;;;;;4901766;29;20067;-80
2021/07/16 06:05:22;;;;;;;26.13;6.85;;;16.50;99.90;;;;;;4883261;29;20071;-77
2021/07/16 06:07:48;;;;;;;27.95;7.43;;;16.50;99.90;;;;;;4868740;29;20036;-78
2021/07/16 06:10:14;;;;;;;23.25;6.35;;;16.60;99.90;;;;;;4882798;29;20044;-79
2021/07/16 06:12:41;;;;;;;28.38;6.47;;;16.60;99.90;;;;;;4870643;29;20059;-80
2021/07/16 06:15:08;;;;;;;24.60;6.00;;;16.50;99.90;;;;;;4870371;29;20052;-80
2021/07/16 06:17:35;;;;;;;20.23;5.47;;;16.60;99.90;;;;;;4883372;29;20092;-79
2021/07/16 06:20:02;;;;;;;27.73;6.30;;;16.60;99.90;;;;;;4903074;29;20047;-80
2021/07/16 06:22:28;;;;;;;28.77;6.70;;;16.50;99.90;;;;;;4899285;29;20270;-79
2021/07/16 06:24:54;;;;;;;25.70;7.47;;;16.50;99.90;;;;;;4883857;29;20147;-78
2021/07/16 06:27:21;;;;;;;28.55;6.88;;;16.50;99.90;;;;;;4901635;29;20047;-79
2021/07/16 06:29:46;;;;;;;29.77;6.65;;;16.50;99.90;;;;;;4850891;29;20087;-80
2021/07/16 06:32:13;;;;;;;30.17;6.45;;;16.50;99.90;;;;;;4853999;29;20514;-79
2021/07/16 06:34:40;;;;;;;29.05;7.07;;;16.60;99.90;;;;;;4902436;29;20380;-80
2021/07/16 06:37:06;;;;;;;29.92;6.95;;;16.60;99.90;;;;;;4855042;29;20047;-79
2021/07/16 06:39:33;;;;;;;32.88;6.78;;;16.60;99.90;;;;;;4865313;29;21004;-79
2021/07/16 06:41:58;;;;;;;27.08;7.22;;;16.60;99.90;;;;;;4882735;29;20348;-76
2021/07/16 06:44:24;;;;;;;28.05;6.57;;;16.60;99.90;;;;;;4880833;29;20048;-79
2021/07/16 06:46:50;;;;;;;30.90;6.60;;;16.60;99.90;;;;;;4881744;29;20047;-79
2021/07/16 06:49:16;;;;;;;22.70;7.00;;;16.60;99.90;;;;;;4869160;29;20578;-79
2021/07/16 06:51:42;;;;;;;24.30;6.30;;;16.70;99.90;;;;;;4883224;29;20403;-79
2021/07/16 06:54:11;;;;;;;28.35;6.38;;;16.60;99.90;;;;;;4887824;29;20123;-80
2021/07/16 06:56:37;;;;;;;25.25;6.22;;;16.70;99.90;;;;;;4839044;29;20119;-79
2021/07/16 06:59:06;;;;;;;29.58;7.07;;;16.70;99.90;;;;;;4853079;29;20135;-79
2021/07/16 07:01:32;;;;;;;25.23;6.70;;;16.70;99.90;;;;;;4853326;29;20499;-80
2021/07/16 07:03:58;;;;;;;25.50;6.68;;;16.70;99.90;;;;;;4882762;29;20495;-79
2021/07/16 07:06:24;;;;;;;27.52;7.07;;;16.70;99.90;;;;;;4881581;29;20044;-79
2021/07/16 07:08:50;;;;;;;27.00;6.45;;;16.80;99.90;;;;;;4871320;29;20497;-80
2021/07/16 07:11:16;;;;;;;28.00;6.88;;;16.80;99.90;;;;;;4858543;29;20058;-79
2021/07/16 07:13:44;;;;;;;30.58;6.78;;;16.80;99.90;;;;;;4854457;29;20063;-80
2021/07/16 07:16:15;;;;;;;24.83;6.05;;;16.80;99.90;;;;;;4874041;29;20052;-79
2021/07/16 07:18:41;;;;;;;35.67;7.18;;;16.80;99.90;;;;;;4871404;29;20407;-80
2021/07/16 07:21:11;;;;;;;27.70;6.88;;;16.80;99.90;;;;;;4904162;29;20043;-81
2021/07/16 07:23:37;;;;;;;24.77;6.28;;;16.80;99.90;;;;;;4890591;29;20052;-77
2021/07/16 07:26:03;;;;;;;35.40;7.30;;;16.90;99.90;;;;;;4893446;29;20092;-78
2021/07/16 07:28:29;;;;;;;22.58;6.60;;;16.90;99.90;;;;;;4869572;29;20052;-78
2021/07/16 07:30:55;;;;;;;36.40;6.60;;;16.90;99.90;;;;;;4870124;29;20181;-78
2021/07/16 07:33:21;;;;;;;25.75;7.10;;;16.90;99.90;;;;;;4873110;29;20047;-78
2021/07/16 07:35:47;;;;;;;26.38;6.03;;;16.90;99.90;;;;;;4875104;29;20043;-78
2021/07/16 07:38:13;;;;;;;31.00;7.05;;;16.90;99.90;;;;;;4869366;29;20091;-78
2021/07/16 07:40:39;;;;;;;29.13;6.50;;;16.90;99.90;;;;;;4885852;29;20048;-79
2021/07/16 07:43:05;;;;;;;21.85;6.47;;;16.90;99.90;;;;;;4907000;29;20079;-79
2021/07/16 07:45:32;;;;;;;25.02;6.43;;;16.90;99.90;;;;;;4899547;29;20132;-76
2021/07/16 07:47:58;;;;;;;23.45;5.95;;;16.90;99.90;;;;;;4903647;29;20078;-78
2021/07/16 07:50:25;;;;;;;23.20;5.60;;;17.00;99.90;;;;;;4843868;29;20071;-78
2021/07/16 07:52:52;;;;;;;31.13;6.82;;;17.00;99.90;;;;;;4908080;29;20562;-78
2021/07/16 07:55:20;;;;;;;38.40;7.43;;;17.00;99.90;;;;;;4891859;29;20498;-78
2021/07/16 07:57:46;;;;;;;22.90;5.90;;;17.00;99.90;;;;;;4874163;29;20052;-78
2021/07/16 08:00:15;;;;;;;22.05;6.18;;;17.10;99.90;;;;;;4907944;29;20036;-79
2021/07/16 08:02:42;;;;;;;27.98;5.93;;;17.10;99.90;;;;;;4908711;29;20032;-79
2021/07/16 08:05:09;;;;;;;27.88;6.72;;;17.20;99.90;;;;;;4889088;29;20048;-79
2021/07/16 08:07:36;;;;;;;20.58;5.78;;;17.20;99.90;;;;;;4887659;29;20139;-80
2021/07/16 08:10:07;;;;;;;30.92;6.85;;;17.30;99.90;;;;;;4887239;29;20492;-78
2021/07/16 08:12:34;;;;;;;25.85;5.78;;;17.30;99.90;;;;;;4899463;29;20048;-79
2021/07/16 08:15:00;;;;;;;25.45;7.00;;;17.40;99.90;;;;;;4906499;29;20118;-78
2021/07/16 08:17:26;;;;;;;23.50;6.28;;;17.30;99.90;;;;;;4872615;29;20044;-77
2021/07/16 08:19:52;;;;;;;27.42;6.10;;;17.40;99.90;;;;;;4883925;29;20496;-77
2021/07/16 08:22:18;;;;;;;29.35;6.13;;;17.50;99.90;;;;;;4871334;29;20044;-80
2021/07/16 08:24:44;;;;;;;26.73;6.80;;;17.50;99.80;;;;;;4885638;29;20139;-80
2021/07/16 08:27:10;;;;;;;31.05;7.03;;;17.60;99.80;;;;;;4866613;29;20254;-79
2021/07/16 08:29:36;;;;;;;29.23;6.50;;;17.60;99.90;;;;;;4886418;29;20045;-79
2021/07/16 08:32:03;;;;;;;24.25;6.10;;;17.60;99.90;;;;;;4859208;29;20056;-79
2021/07/16 08:34:29;;;;;;;28.05;6.13;;;17.60;99.20;;;;;;4863219;29;20259;-79
2021/07/16 08:36:54;;;;;;;28.70;6.85;;;17.60;98.70;;;;;;4851640;29;20419;-75
2021/07/16 08:39:20;;;;;;;25.48;6.82;;;17.60;98.80;;;;;;4901224;29;20036;-76
2021/07/16 08:41:46;;;;;;;26.42;5.95;;;17.70;98.90;;;;;;4865339;29;20494;-75
2021/07/16 08:44:14;;;;;;;26.30;5.95;;;17.70;99.00;;;;;;4870107;29;20043;-75
2021/07/16 08:46:44;;;;;;;30.42;6.43;;;17.70;99.20;;;;;;4885522;29;20150;-75
2021/07/16 08:49:11;;;;;;;29.95;7.43;;;17.80;99.30;;;;;;4888599;29;20044;-76
2021/07/16 08:51:38;;;;;;;26.30;6.18;;;17.80;98.90;;;;;;4908299;29;20115;-76
2021/07/16 08:54:04;;;;;;;25.92;6.78;;;17.80;98.50;;;;;;4890101;29;20051;-76
2021/07/16 08:56:35;;;;;;;26.95;6.63;;;17.90;98.40;;;;;;4875986;29;20207;-75
2021/07/16 08:59:05;;;;;;;27.50;6.90;;;17.90;98.70;;;;;;4885494;29;20188;-74
2021/07/16 09:01:32;;;;;;;26.50;7.07;;;18.00;98.40;;;;;;4888212;29;20488;-77
2021/07/16 09:04:06;;;;;;;28.50;6.85;;;18.10;98.20;;;;;;4859217;29;20083;-74
2021/07/16 09:06:47;;;;;;;22.85;7.07;;;18.20;96.60;;;;;;4886796;29;20595;-75
2021/07/16 09:09:16;;;;;;;28.02;7.43;;;18.20;95.70;;;;;;4890089;29;20474;-75
2021/07/16 09:11:45;;;;;;;29.20;6.57;;;18.20;95.70;;;;;;4906944;29;20060;-76
2021/07/16 09:14:38;;;;;;;24.57;6.77;;;18.10;96.50;;;;;;4900252;29;20792;-77
2021/07/16 09:17:07;;;;;;;29.55;6.80;;;18.10;96.50;;;;;;4885713;29;20293;-77
2021/07/16 09:19:35;;;;;;;20.88;7.13;;;18.00;96.70;;;;;;4886390;29;20044;-76
2021/07/16 09:22:11;;;;;;;30.65;7.15;;;18.00;97.10;;;;;;4874946;29;21222;-75
2021/07/16 09:24:39;;;;;;;26.65;6.72;;;18.00;97.80;;;;;;4904209;29;20353;-75
2021/07/16 09:27:40;;;;;;;24.42;6.43;;;18.00;97.00;;;;;;4900832;29;20587;-75
2021/07/16 09:30:21;;;;;;;25.10;6.40;;;18.00;97.50;;;;;;4895150;29;20055;-76
2021/07/16 09:32:52;;;;;;;26.83;6.38;;;18.00;97.00;;;;;;4905872;29;20044;-75
2021/07/16 09:35:30;;;;;;;26.13;7.30;;;18.10;96.20;;;;;;4885767;29;20044;-75
2021/07/16 09:37:59;;;;;;;27.17;6.60;;;18.20;95.60;;;;;;4884891;29;20135;-76
2021/07/16 09:40:34;;;;;;;25.02;7.95;;;18.30;95.70;;;;;;4886694;29;20072;-75
2021/07/16 09:43:07;;;;;;;26.55;7.30;;;18.20;96.40;;;;;;4891876;29;20055;-75
2021/07/16 09:45:35;;;;;;;22.65;6.97;;;18.30;96.20;;;;;;4907970;29;20047;-76
2021/07/16 09:48:23;;;;;;;;;;;18.30;96.80;;;;;;4888456;29;20514;-81
2021/07/16 09:51:09;;;;;;;27.60;6.55;;;18.30;97.00;;;;;;4891161;29;19942;-78
2021/07/16 09:53:51;;;;;;;20.58;6.57;;;18.20;97.10;;;;;;4888143;29;20395;-79
2021/07/16 09:56:19;;;;;;;24.13;6.30;;;18.20;97.60;;;;;;4900786;29;20048;-79
2021/07/16 09:58:47;;;;;;;28.63;7.13;;;18.30;97.70;;;;;;4886763;29;20153;-79
2021/07/16 10:01:13;;;;;;;23.45;6.43;;;18.40;97.90;;;;;;4868498;29;20070;-79
2021/07/16 10:03:41;;;;;;;26.10;6.93;;;18.50;97.80;;;;;;4899912;29;20055;-79
2021/07/16 10:06:13;;;;;;;22.88;6.82;;;18.50;97.10;;;;;;4881470;29;20456;-79
2021/07/16 10:08:42;;;;;;;25.00;6.85;;;18.60;96.30;;;;;;4906455;29;20046;-78
2021/07/16 10:11:09;;;;;;;26.92;6.93;;;18.60;96.00;;;;;;4868182;29;20044;-78
2021/07/16 10:13:37;;;;;;;26.98;6.93;;;18.60;96.60;;;;;;4870557;29;20056;-78
2021/07/16 10:16:04;;;;;;;21.95;6.68;;;18.60;96.70;;;;;;4902852;29;20167;-77
2021/07/16 10:18:30;;;;;;;27.90;7.05;;;18.50;96.60;;;;;;4870644;29;20039;-78
2021/07/16 10:20:57;;;;;;;25.13;7.40;;;18.50;95.60;;;;;;4879893;29;20541;-79
2021/07/16 10:23:27;;;;;;;29.65;7.20;;;18.50;96.10;;;;;;4883945;29;20060;-79
2021/07/16 10:25:54;;;;;;;27.27;7.40;;;18.50;96.70;;;;;;4884123;29;20098;-77
2021/07/16 10:28:33;;;;;;;27.67;8.27;;;18.50;97.00;;;;;;4876636;29;20103;-79
2021/07/16 10:30:59;;;;;;;21.52;7.00;;;18.50;97.10;;;;;;4897177;29;20044;-79
2021/07/16 10:33:40;;;;;;;22.13;7.75;;;18.60;97.30;;;;;;4887003;29;20642;-78
2021/07/16 10:36:12;;;;;;;27.13;7.07;;;18.70;97.40;;;;;;4905455;29;20400;-79
2021/07/16 10:38:40;;;;;;;29.30;7.10;;;18.80;94.80;;;;;;4866418;29;20044;-78
2021/07/16 10:41:31;;;;;;;24.95;7.50;;;18.80;95.60;;;;;;4887516;29;20058;-81
2021/07/16 10:43:57;;;;;;;;;;;18.80;96.70;;;;;;4908717;29;20087;-80
2021/07/16 10:46:44;;;;;;;25.77;6.72;;;18.80;96.90;;;;;;4888810;29;19977;-81
2021/07/16 10:49:12;;;;;;;23.67;7.05;;;18.80;96.40;;;;;;4874968;29;20052;-80
2021/07/16 10:51:41;;;;;;;28.63;8.35;;;18.90;95.30;;;;;;4908387;29;20403;-81
2021/07/16 10:54:10;;;;;;;25.10;6.90;;;18.80;96.10;;;;;;4900239;29;20040;-79
2021/07/16 10:56:41;;;;;;;27.70;8.00;;;18.80;94.80;;;;;;4888083;29;20044;-78
2021/07/16 10:59:09;;;;;;;30.70;8.55;;;18.80;95.40;;;;;;4906640;29;20696;-77
2021/07/16 11:01:41;;;;;;;24.73;7.55;;;18.90;95.00;;;;;;4903758;29;20044;-77
2021/07/16 11:04:33;;;;;;;22.98;7.43;;;18.80;95.80;;;;;;4893375;29;20563;-76
2021/07/16 11:06:59;;;;;;;25.08;7.07;;;18.80;95.50;;;;;;4907255;29;20300;-76
2021/07/16 11:09:35;;;;;;;22.55;7.03;;;18.80;95.20;;;;;;4890652;29;20047;-76
2021/07/16 11:12:19;;;;;;;20.17;6.75;;;18.90;94.30;;;;;;4903984;29;20048;-76
2021/07/16 11:14:45;;;;;;;26.45;7.03;;;19.00;95.10;;;;;;4887579;29;20395;-77
2021/07/16 11:17:31;;;;;;;27.05;8.05;;;19.00;95.40;;;;;;4891415;29;20752;-77
2021/07/16 11:20:08;;;;;;;28.73;8.35;;;19.10;94.70;;;;;;4885895;29;21035;-78
2021/07/16 11:22:34;;;;;;;20.42;7.93;;;19.10;94.80;;;;;;4890992;29;20051;-78
2021/07/16 11:25:00;;;;;;;25.48;7.38;;;19.20;93.60;;;;;;4890720;29;20065;-77
2021/07/16 11:27:26;;;;;;;27.02;7.90;;;19.30;93.70;;;;;;4876033;29;20634;-77
2021/07/16 11:29:52;;;;;;;26.33;8.00;;;19.30;93.80;;;;;;4886139;29;20122;-80
2021/07/16 11:32:20;;;;;;;22.25;8.00;;;19.30;94.20;;;;;;4859328;29;20155;-78
2021/07/16 11:35:06;;;;;;;25.95;8.32;;;19.30;94.40;;;;;;4890565;29;20071;-78
2021/07/16 11:37:34;;;;;;;20.05;6.50;;;19.40;95.20;;;;;;4875829;29;20072;-78
2021/07/16 11:40:05;;;;;;;24.90;7.40;;;19.60;95.10;;;;;;4900710;29;20495;-78
2021/07/16 11:42:33;;;;;;;27.70;7.63;;;19.60;94.80;;;;;;4882181;29;20072;-78
2021/07/16 11:44:59;;;;;;;25.65;7.53;;;19.60;94.90;;;;;;4902922;29;20055;-77
2021/07/16 11:47:27;;;;;;;23.90;8.30;;;19.60;93.50;;;;;;4906050;29;20040;-77
2021/07/16 11:49:59;;;;;;;19.77;7.45;;;19.60;94.40;;;;;;4889665;29;20562;-78
2021/07/16 11:52:30;;;;;;;24.67;7.70;;;19.70;93.70;;;;;;4886611;29;20120;-78
2021/07/16 11:55:18;;;;;;;25.73;8.25;;;19.70;94.30;;;;;;4908696;29;20052;-79
2021/07/16 11:57:54;;;;;;;28.23;9.07;;;19.80;93.80;;;;;;4907320;29;20056;-77
2021/07/16 12:00:23;;;;;;;26.30;7.70;;;19.70;94.50;;;;;;4874258;29;20055;-78
2021/07/16 12:02:49;;;;;;;24.58;7.50;;;19.80;93.00;;;;;;4903131;29;20118;-80
2021/07/16 12:05:15;;;;;;;29.05;8.25;;;19.70;93.60;;;;;;4905514;29;20479;-78
2021/07/16 12:07:44;;;;;;;27.17;8.40;;;19.60;94.10;;;;;;4855173;29;20036;-78
2021/07/16 12:10:16;;;;;;;27.17;9.90;;;19.50;94.90;;;;;;4874276;29;20095;-76
2021/07/16 12:12:43;;;;;;;21.13;7.53;;;19.60;95.10;;;;;;4885954;29;21389;-82
2021/07/16 12:15:21;;;;;;;28.98;8.77;;;19.60;94.60;;;;;;4872623;29;20522;-78
2021/07/16 12:17:55;;;;;;;23.02;8.10;;;19.70;95.10;;;;;;4906228;29;20072;-77
2021/07/16 12:20:38;;;;;;;22.02;7.88;;;19.60;95.20;;;;;;4901168;29;20063;-79
2021/07/16 12:23:14;;;;;;;32.78;8.68;;;19.60;95.10;;;;;;4883449;29;20032;-80
2021/07/16 12:25:40;;;;;;;24.67;7.85;;;19.70;93.60;;;;;;4887880;29;20070;-77
2021/07/16 12:28:18;;;;;;;31.08;8.65;;;19.60;94.10;;;;;;4869365;29;20492;-78
2021/07/16 12:30:45;;;;;;;25.00;8.85;;;19.70;94.50;;;;;;4873622;29;20040;-77
2021/07/16 12:33:13;;;;;;;25.70;9.30;;;19.70;94.90;;;;;;4885197;29;20075;-79
2021/07/16 12:35:41;;;;;;;30.10;8.77;;;19.70;95.30;;;;;;4871539;29;20535;-78
2021/07/16 12:38:15;;;;;;;28.25;8.80;;;19.80;95.10;;;;;;4888319;29;20139;-79
2021/07/16 12:40:43;;;;;;;28.85;8.02;;;20.00;94.60;;;;;;4901477;29;20055;-80
2021/07/16 12:43:17;;;;;;;28.50;9.20;;;20.00;94.60;;;;;;4887220;29;20048;-78
2021/07/16 12:45:55;;;;;;;28.55;8.18;;;19.90;94.80;;;;;;4887022;29;20124;-78